Time;durP1;ratioP1;P1;durP2;ratioP2;P2;SDS_P1;SDS_P2;PMS_P1;PMS_P2;Temp;Humidity;BMP_temperature;BMP_pressure;BME280_temperature;BME280_humidity;BME280_pressure;Samples;Min_cycle;Max_cycle;Signal;HPM_P1;HPM_P2
2023/09/27 00:02:05;;;;;;;1.83;1.47;;;;;;;16.19;92.71;95960.16;4362923;32;20236;-63
2023/09/27 00:04:30;;;;;;;2.03;1.47;;;;;;;16.30;92.23;95955.28;4379370;32;20193;-63
2023/09/27 00:06:55;;;;;;;1.33;1.23;;;;;;;16.33;91.87;95955.44;4379143;32;20212;-63
2023/09/27 00:09:21;;;;;;;1.13;1.13;;;;;;;16.23;91.90;95961.09;4379363;32;20306;-63
2023/09/27 00:11:46;;;;;;;0.83;0.83;;;;;;;16.18;91.94;95961.25;4378868;32;20227;-63
2023/09/27 00:14:13;;;;;;;1.33;1.23;;;;;;;16.21;92.33;95954.50;4379865;32;20279;-63
2023/09/27 00:16:39;;;;;;;1.53;1.53;;;;;;;16.30;91.60;95955.28;4365173;32;20196;-63
2023/09/27 00:19:05;;;;;;;2.30;1.77;;;;;;;16.01;91.81;95961.19;4379517;32;20188;-62
2023/09/27 00:21:30;;;;;;;1.50;1.50;;;;;;;15.98;92.48;95956.50;4365622;32;20188;-63
2023/09/27 00:23:56;;;;;;;1.60;1.60;;;;;;;16.08;92.58;95945.47;4365324;32;20236;-62
2023/09/27 00:26:21;;;;;;;1.93;1.83;;;;;;;16.23;91.91;95945.03;4379155;32;20234;-62
2023/09/27 00:28:46;;;;;;;1.27;1.27;;;;;;;16.18;91.95;95941.72;4365336;32;20224;-63
2023/09/27 00:31:14;;;;;;;3.17;1.57;;;;;;;16.01;92.31;95939.78;4365640;32;20252;-61
2023/09/27 00:33:39;;;;;;;2.20;1.80;;;;;;;15.85;93.44;95944.00;4365697;32;20181;-63
2023/09/27 00:36:05;;;;;;;2.27;2.13;;;;;;;16.04;92.57;95944.53;4364771;32;20197;-62
2023/09/27 00:38:30;;;;;;;0.97;0.97;;;;;;;16.00;92.72;95940.91;4382284;32;20180;-63
2023/09/27 00:40:55;;;;;;;1.27;1.20;;;;;;;16.10;92.30;95941.41;4378535;32;20381;-63
2023/09/27 00:43:28;;;;;;;1.43;1.43;;;;;;;16.11;91.82;95936.84;4379288;32;20252;-62
2023/09/27 00:45:57;;;;;;;0.93;0.93;;;;;;;16.12;92.08;95933.84;4364904;32;20184;-63
2023/09/27 00:48:23;;;;;;;1.07;1.00;;;;;;;16.08;91.80;95937.44;4378348;32;20199;-63
2023/09/27 00:50:50;;;;;;;1.30;1.30;;;;;;;16.14;91.91;95941.56;4378597;32;20237;-63
2023/09/27 00:53:16;;;;;;;1.70;1.60;;;;;;;16.14;91.96;95936.22;4378485;32;20201;-63
2023/09/27 00:55:41;;;;;;;0.80;0.80;;;;;;;16.02;92.41;95938.69;4380515;32;20264;-63
2023/09/27 00:58:07;;;;;;;0.70;0.70;;;;;;;16.12;91.88;95944.56;4378339;32;20218;-63
2023/09/27 01:00:33;;;;;;;1.20;1.20;;;;;;;16.03;91.70;95932.25;4377674;32;20180;-62
2023/09/27 01:02:58;;;;;;;1.40;1.30;;;;;;;16.12;91.62;95939.19;4377939;32;20176;-63
2023/09/27 01:05:24;;;;;;;1.47;1.47;;;;;;;16.17;91.58;95934.78;4359397;32;20207;-63
2023/09/27 01:07:50;;;;;;;1.20;1.20;;;;;;;16.00;91.75;95930.22;4371710;32;20201;-62
2023/09/27 01:10:15;;;;;;;1.13;1.13;;;;;;;15.99;91.79;95931.31;4377940;32;20211;-62
2023/09/27 01:12:40;;;;;;;1.10;1.10;;;;;;;16.07;91.43;95925.16;4366565;32;20192;-62
2023/09/27 01:15:07;;;;;;;1.60;1.60;;;;;;;16.08;91.60;95929.41;4375578;32;20208;-62
2023/09/27 01:17:32;;;;;;;1.00;1.00;;;;;;;15.89;91.64;95929.72;4378438;32;20260;-62
2023/09/27 01:19:57;;;;;;;0.63;0.63;;;;;;;15.95;91.99;95925.78;4376458;32;20184;-62
2023/09/27 01:22:22;;;;;;;2.13;1.50;;;;;;;16.00;92.02;95924.84;4364267;32;20205;-62
2023/09/27 01:24:51;;;;;;;1.03;1.03;;;;;;;16.03;91.86;95924.22;4377198;32;20256;-63
2023/09/27 01:27:18;;;;;;;1.13;1.10;;;;;;;15.98;91.57;95916.34;4378212;32;20184;-63
2023/09/27 01:29:44;;;;;;;2.37;1.93;;;;;;;16.09;91.73;95923.75;4377356;32;20243;-63
2023/09/27 01:32:09;;;;;;;3.03;1.10;;;;;;;16.05;91.74;95913.97;4379430;32;20188;-63
2023/09/27 01:34:34;;;;;;;0.70;0.70;;;;;;;16.02;91.48;95918.06;4376572;32;20207;-63
2023/09/27 01:37:00;;;;;;;1.43;1.33;;;;;;;16.08;91.32;95916.03;4364264;32;20215;-63
2023/09/27 01:39:25;;;;;;;1.17;1.17;;;;;;;15.93;91.63;95916.50;4361647;32;20193;-63
2023/09/27 01:41:51;;;;;;;0.83;0.83;;;;;;;15.92;91.48;95917.59;4377625;32;20188;-62
2023/09/27 01:44:16;;;;;;;0.77;0.77;;;;;;;15.96;91.72;95916.66;4377470;32;20264;-63
2023/09/27 01:46:41;;;;;;;1.17;1.17;;;;;;;15.98;91.50;95914.47;4379189;32;20193;-62
2023/09/27 01:49:07;;;;;;;1.40;1.07;;;;;;;16.06;91.58;95904.84;4377957;32;20196;-62
2023/09/27 01:51:32;;;;;;;6.10;1.63;;;;;;;15.68;91.86;95905.41;4377414;32;20199;-62
2023/09/27 01:53:58;;;;;;;1.67;1.57;;;;;;;15.60;92.72;95905.38;4363751;32;20203;-62
2023/09/27 01:56:23;;;;;;;1.10;1.10;;;;;;;15.45;93.12;95903.91;4363874;32;20203;-62
2023/09/27 01:58:48;;;;;;;0.87;0.87;;;;;;;15.80;92.42;95900.25;4376583;32;20188;-62
2023/09/27 02:01:14;;;;;;;1.50;1.50;;;;;;;15.81;92.25;95896.47;4375714;32;20203;-62
2023/09/27 02:03:40;;;;;;;2.00;1.10;;;;;;;15.74;92.11;95898.03;4379050;32;20274;-62
2023/09/27 02:06:05;;;;;;;1.70;1.60;;;;;;;15.85;91.90;95896.62;4376322;32;20242;-62
2023/09/27 02:08:31;;;;;;;1.10;1.10;;;;;;;15.80;92.04;95894.09;4376511;32;20188;-62
2023/09/27 02:10:56;;;;;;;1.00;1.00;;;;;;;15.85;91.78;95891.28;4377331;32;20288;-62
2023/09/27 02:13:21;;;;;;;1.00;1.00;;;;;;;15.84;92.04;95888.91;4376252;32;20219;-62
2023/09/27 02:15:47;;;;;;;1.33;1.27;;;;;;;15.80;92.52;95889.53;4372423;32;20216;-63
2023/09/27 02:18:12;;;;;;;1.10;1.10;;;;;;;15.73;92.31;95894.59;4373814;32;20225;-63
2023/09/27 02:20:37;;;;;;;1.20;1.20;;;;;;;15.66;92.07;95896.12;4365605;32;20208;-63
2023/09/27 02:23:03;;;;;;;1.07;1.07;;;;;;;15.60;92.55;95889.34;4367234;32;20218;-62
2023/09/27 02:25:28;;;;;;;2.37;1.40;;;;;;;15.52;92.10;95898.09;4376466;32;20200;-63
2023/09/27 02:27:54;;;;;;;4.63;0.90;;;;;;;15.50;92.37;95898.41;4377507;32;20202;-63
2023/09/27 02:30:19;;;;;;;4.90;1.17;;;;;;;15.60;92.16;95903.50;4377143;32;20226;-63
2023/09/27 02:32:45;;;;;;;1.30;1.20;;;;;;;15.51;92.44;95908.00;4375844;32;20197;-63
2023/09/27 02:35:15;;;;;;;1.40;1.30;;;;;;;15.44;92.59;95905.00;4367185;32;20217;-63
2023/09/27 02:37:42;;;;;;;0.97;0.97;;;;;;;15.50;91.40;95908.31;4363862;32;20252;-63
2023/09/27 02:40:11;;;;;;;1.23;1.23;;;;;;;15.45;91.84;95909.25;4370434;32;20193;-63
2023/09/27 02:42:37;;;;;;;1.27;1.17;;;;;;;15.51;91.86;95912.56;4363053;32;20188;-63
2023/09/27 02:45:03;;;;;;;0.90;0.90;;;;;;;15.38;92.39;95916.94;4362931;32;20188;-63
2023/09/27 02:47:28;;;;;;;1.37;1.37;;;;;;;15.29;92.96;95908.87;4376469;32;20196;-63
2023/09/27 02:49:54;;;;;;;3.63;1.00;;;;;;;15.23;93.24;95903.97;4376715;32;20281;-63
2023/09/27 02:52:19;;;;;;;0.83;0.83;;;;;;;15.30;92.55;95898.97;4363176;32;20197;-63
2023/09/27 02:54:45;;;;;;;1.07;1.07;;;;;;;15.14;92.04;95901.28;4376755;32;20222;-64
2023/09/27 02:57:11;;;;;;;1.00;0.87;;;;;;;15.22;92.38;95899.72;4378660;32;20207;-63
2023/09/27 02:59:36;;;;;;;0.60;0.60;;;;;;;15.47;92.07;95894.47;4375281;32;20200;-63
2023/09/27 03:02:01;;;;;;;0.93;0.93;;;;;;;15.50;91.74;95898.41;4376357;32;20310;-64
2023/09/27 03:04:30;;;;;;;1.53;1.13;;;;;;;15.22;92.05;95903.19;4375619;32;20216;-64
2023/09/27 03:06:55;;;;;;;1.07;1.07;;;;;;;15.46;91.78;95902.81;4368652;32;20206;-63
2023/09/27 03:09:21;;;;;;;2.53;1.03;;;;;;;15.43;91.53;95900.75;4375161;32;20201;-63
2023/09/27 03:11:46;;;;;;;0.50;0.50;;;;;;;15.19;92.26;95895.75;4376445;32;20193;-63
2023/09/27 03:14:11;;;;;;;0.77;0.77;;;;;;;15.19;92.75;95894.97;4378266;32;20185;-63
2023/09/27 03:16:37;;;;;;;1.00;0.87;;;;;;;15.21;92.13;95898.13;4375985;32;20188;-63
2023/09/27 03:19:03;;;;;;;0.60;0.60;;;;;;;15.38;92.12;95899.00;4362872;32;20294;-63
2023/09/27 03:21:28;;;;;;;0.67;0.67;;;;;;;15.31;91.79;95903.22;4376596;32;20236;-63
2023/09/27 03:23:54;;;;;;;0.90;0.90;;;;;;;15.48;90.98;95909.41;4362467;32;20215;-63
2023/09/27 03:26:22;;;;;;;1.47;1.37;;;;;;;15.42;91.41;95915.22;4376359;32;20225;-64
2023/09/27 03:28:47;;;;;;;1.53;1.40;;;;;;;15.47;91.14;95915.87;4376150;32;20240;-63
2023/09/27 03:31:13;;;;;;;1.47;1.37;;;;;;;15.50;91.31;95922.47;4362262;32;20189;-63
2023/09/27 03:33:38;;;;;;;1.00;1.00;;;;;;;15.42;91.16;95921.34;4378701;32;20208;-62
2023/09/27 03:36:04;;;;;;;2.50;1.33;;;;;;;15.47;91.22;95923.09;4376009;32;20188;-63
2023/09/27 03:38:29;;;;;;;0.73;0.73;;;;;;;15.20;91.74;95923.28;4361916;32;20203;-63
2023/09/27 03:40:55;;;;;;;0.77;0.77;;;;;;;15.16;92.74;95923.13;4376121;32;20318;-63
2023/09/27 03:43:20;;;;;;;0.77;0.73;;;;;;;15.29;91.99;95926.81;4376659;32;20185;-63
2023/09/27 03:45:45;;;;;;;1.80;1.07;;;;;;;15.38;91.46;95933.00;4376160;32;20188;-63
2023/09/27 03:48:11;;;;;;;0.77;0.77;;;;;;;15.40;91.44;95936.13;4377876;32;20193;-63
2023/09/27 03:50:36;;;;;;;1.50;1.13;;;;;;;15.35;91.87;95936.28;4375648;32;20211;-63
2023/09/27 03:53:02;;;;;;;0.67;0.67;;;;;;;15.27;92.42;95937.00;4376034;32;20264;-63
2023/09/27 03:55:27;;;;;;;0.67;0.67;;;;;;;15.35;92.42;95936.28;4374946;32;20227;-63
2023/09/27 03:57:53;;;;;;;1.07;1.07;;;;;;;15.38;91.56;95938.34;4351681;32;20201;-63
2023/09/27 04:00:18;;;;;;;0.90;0.90;;;;;;;15.32;91.76;95942.22;4375838;32;20185;-63
2023/09/27 04:02:44;;;;;;;0.83;0.83;;;;;;;15.37;91.65;95944.78;4375330;32;20188;-63
2023/09/27 04:05:11;;;;;;;1.67;1.57;;;;;;;15.39;91.69;95940.66;4363971;32;20230;-63
2023/09/27 04:07:36;;;;;;;1.10;1.10;;;;;;;15.39;91.90;95935.31;4375273;32;20196;-63
2023/09/27 04:10:03;;;;;;;1.67;0.57;;;;;;;15.42;91.90;95947.28;4375707;32;20339;-62
2023/09/27 04:12:29;;;;;;;0.90;0.90;;;;;;;15.40;91.79;95944.13;4358655;32;20184;-63
2023/09/27 04:14:54;;;;;;;1.33;1.27;;;;;;;15.43;91.66;95951.53;4374743;32;20189;-63
2023/09/27 04:17:20;;;;;;;0.73;0.73;;;;;;;15.46;91.41;95940.25;4361876;32;20192;-63
2023/09/27 04:19:45;;;;;;;0.30;0.30;;;;;;;15.37;92.12;95936.75;4375984;32;20224;-63
2023/09/27 04:22:10;;;;;;;0.90;0.90;;;;;;;15.33;91.42;95933.91;4370616;32;20244;-63
2023/09/27 04:24:36;;;;;;;0.93;0.93;;;;;;;15.29;92.02;95937.50;4372021;32;20268;-63
2023/09/27 04:27:02;;;;;;;0.87;0.87;;;;;;;15.33;91.84;95941.13;4370443;32;20245;-63
2023/09/27 04:29:27;;;;;;;5.43;1.27;;;;;;;15.40;91.57;95944.94;4370185;32;20236;-63
2023/09/27 04:31:53;;;;;;;0.67;0.67;;;;;;;15.29;91.79;95950.84;4361572;32;20220;-63
2023/09/27 04:34:18;;;;;;;0.83;0.83;;;;;;;15.36;91.79;95960.03;4375498;32;20188;-63
2023/09/27 04:36:44;;;;;;;0.70;0.70;;;;;;;15.20;91.59;95968.72;4372456;32;20204;-63
2023/09/27 04:39:12;;;;;;;0.60;0.60;;;;;;;15.28;92.14;95968.00;4374868;32;20188;-63
2023/09/27 04:41:38;;;;;;;1.10;1.10;;;;;;;15.23;92.38;95971.59;4352270;32;20189;-63
2023/09/27 04:44:05;;;;;;;1.20;1.17;;;;;;;15.38;92.27;95976.53;4369793;32;20252;-63
2023/09/27 04:46:31;;;;;;;0.80;0.80;;;;;;;15.29;91.94;95969.56;4373918;32;20184;-63
2023/09/27 04:48:57;;;;;;;1.17;1.17;;;;;;;15.32;92.44;95975.09;4373857;32;20184;-63
2023/09/27 04:51:22;;;;;;;0.63;0.63;;;;;;;15.29;92.55;95980.25;4376503;32;20207;-63
2023/09/27 04:53:47;;;;;;;0.73;0.73;;;;;;;15.40;91.80;95976.22;4366465;32;20261;-63
2023/09/27 04:56:13;;;;;;;0.53;0.53;;;;;;;15.32;92.19;95972.44;4374699;32;20208;-62
2023/09/27 04:58:40;;;;;;;6.40;1.20;;;;;;;15.16;92.94;95970.47;4377878;32;20219;-63
2023/09/27 05:01:09;;;;;;;0.80;0.80;;;;;;;15.25;92.29;95968.59;4361572;32;20188;-63
2023/09/27 05:03:35;;;;;;;0.70;0.70;;;;;;;15.40;91.97;95977.00;4361280;32;20185;-63
2023/09/27 05:06:01;;;;;;;3.40;1.07;;;;;;;15.43;92.30;95981.75;4372010;32;20188;-63
2023/09/27 05:08:26;;;;;;;0.70;0.60;;;;;;;15.19;92.68;95977.84;4373477;32;20241;-63
2023/09/27 05:10:52;;;;;;;1.47;1.13;;;;;;;15.32;92.41;95975.09;4378202;32;20199;-63
2023/09/27 05:13:21;;;;;;;1.20;1.10;;;;;;;15.01;93.46;95980.41;4371895;32;20220;-64
2023/09/27 05:15:49;;;;;;;0.67;0.67;;;;;;;15.28;92.77;95989.38;4381864;32;20185;-63
2023/09/27 05:18:15;;;;;;;1.10;1.10;;;;;;;15.39;92.04;95988.81;4370932;32;20204;-63
2023/09/27 05:20:40;;;;;;;1.13;1.03;;;;;;;15.35;92.24;95995.09;4388646;32;20199;-63
2023/09/27 05:23:05;;;;;;;1.67;1.57;;;;;;;15.32;92.19;95999.16;4385541;32;20195;-63
2023/09/27 05:25:31;;;;;;;1.57;1.53;;;;;;;15.32;91.38;95991.16;4391611;32;20181;-63
2023/09/27 05:27:57;;;;;;;1.23;1.17;;;;;;;15.30;92.45;95987.97;4388572;32;20248;-63
2023/09/27 05:30:22;;;;;;;1.07;0.97;;;;;;;15.30;92.71;95979.19;4367730;32;20241;-63
2023/09/27 05:32:48;;;;;;;1.40;1.30;;;;;;;15.26;92.72;95981.66;4375541;32;20227;-63
2023/09/27 05:35:13;;;;;;;0.77;0.77;;;;;;;15.18;93.08;95990.41;4366878;32;20199;-63
2023/09/27 05:37:41;;;;;;;0.90;0.90;;;;;;;15.20;92.50;95987.44;4373200;32;20205;-63
2023/09/27 05:40:09;;;;;;;16.03;1.00;;;;;;;15.00;92.62;95996.75;4378788;32;20199;-63
2023/09/27 05:42:35;;;;;;;1.40;1.33;;;;;;;15.15;92.69;96000.94;4365042;32;20232;-63
2023/09/27 05:45:01;;;;;;;0.90;0.90;;;;;;;15.27;91.96;95998.50;4356321;32;20267;-63
2023/09/27 05:47:26;;;;;;;0.83;0.83;;;;;;;15.30;91.35;96005.91;4374975;32;20207;-62
2023/09/27 05:49:53;;;;;;;0.53;0.53;;;;;;;15.25;91.24;95998.78;4377017;32;20188;-63
2023/09/27 05:52:19;;;;;;;1.63;1.03;;;;;;;15.21;91.66;96005.84;4377844;32;20232;-64
2023/09/27 05:54:45;;;;;;;2.10;1.17;;;;;;;15.26;91.42;96003.06;4363783;32;20246;-63
2023/09/27 05:57:11;;;;;;;0.90;0.90;;;;;;;15.28;90.66;96000.06;4379914;32;20263;-63
2023/09/27 05:59:40;;;;;;;0.80;0.80;;;;;;;15.35;91.33;95997.75;4363011;32;20192;-63
2023/09/27 06:02:06;;;;;;;0.40;0.40;;;;;;;15.44;90.93;96004.72;4376858;32;20188;-63
2023/09/27 06:04:32;;;;;;;1.07;1.07;;;;;;;15.45;90.61;96002.84;4377953;32;20193;-63
2023/09/27 06:06:58;;;;;;;0.93;0.93;;;;;;;15.11;90.48;96001.56;4370148;32;20235;-63
2023/09/27 06:09:24;;;;;;;1.20;1.07;;;;;;;15.27;91.37;95999.28;4373348;32;20213;-63
2023/09/27 06:11:49;;;;;;;1.03;1.03;;;;;;;15.28;91.57;96008.09;4377848;32;20188;-63
2023/09/27 06:14:15;;;;;;;0.73;0.73;;;;;;;15.40;90.98;96008.31;4363876;32;20208;-63
2023/09/27 06:16:42;;;;;;;1.03;1.03;;;;;;;15.39;90.74;96009.41;4376380;32;20208;-63
2023/09/27 06:19:09;;;;;;;4.83;1.57;;;;;;;15.34;91.12;96015.69;4364471;32;20204;-63
2023/09/27 06:21:35;;;;;;;1.13;1.03;;;;;;;15.37;90.94;96015.09;4367160;32;20192;-63
2023/09/27 06:24:00;;;;;;;0.60;0.60;;;;;;;15.34;90.75;96025.59;4369321;32;20238;-62
2023/09/27 06:26:26;;;;;;;1.03;1.03;;;;;;;15.33;91.08;96019.47;4374167;32;20247;-63
2023/09/27 06:28:51;;;;;;;1.03;1.03;;;;;;;15.36;91.44;96018.06;4370829;32;20218;-63
2023/09/27 06:31:17;;;;;;;0.67;0.67;;;;;;;15.36;90.75;96015.37;4371721;32;20185;-63
2023/09/27 06:33:46;;;;;;;0.93;0.73;;;;;;;15.30;91.33;96013.94;4379078;32;20212;-63
2023/09/27 06:36:12;;;;;;;1.80;0.97;;;;;;;15.30;91.72;96020.06;4377751;32;20205;-63
2023/09/27 06:38:38;;;;;;;1.17;1.17;;;;;;;15.45;91.71;96016.22;4378382;32;20196;-63
2023/09/27 06:41:03;;;;;;;1.47;1.17;;;;;;;15.46;91.88;96028.47;4362512;32;20192;-64
2023/09/27 06:43:31;;;;;;;0.67;0.67;;;;;;;15.57;91.79;96023.72;4376806;32;20223;-63
2023/09/27 06:45:57;;;;;;;0.60;0.60;;;;;;;15.51;91.51;96024.91;4362383;32;20203;-63
2023/09/27 06:48:24;;;;;;;1.47;1.33;;;;;;;15.59;91.94;96024.19;4376861;32;20203;-63
2023/09/27 06:50:49;;;;;;;1.53;1.47;;;;;;;15.61;91.36;96028.13;4369494;32;20196;-63
2023/09/27 06:53:15;;;;;;;0.60;0.60;;;;;;;15.66;91.83;96025.31;4374234;32;20255;-63
2023/09/27 06:55:41;;;;;;;0.93;0.93;;;;;;;15.69;91.61;96023.91;4385923;32;20268;-63
2023/09/27 06:58:06;;;;;;;1.10;1.10;;;;;;;15.72;91.76;96032.13;4375727;32;20224;-63
2023/09/27 07:00:32;;;;;;;1.37;1.13;;;;;;;15.80;91.51;96033.22;4377044;32;20312;-63
2023/09/27 07:02:58;;;;;;;0.83;0.83;;;;;;;15.81;91.77;96024.09;4379657;32;20259;-62
2023/09/27 07:05:23;;;;;;;1.57;1.00;;;;;;;15.52;91.70;96026.47;4387652;32;20248;-63
2023/09/27 07:07:50;;;;;;;1.17;1.17;;;;;;;15.36;92.50;96028.75;4378878;32;20207;-62
2023/09/27 07:10:16;;;;;;;2.67;2.47;;;;;;;15.36;92.92;96028.75;4383878;32;20245;-63
2023/09/27 07:12:41;;;;;;;1.27;1.27;;;;;;;15.33;93.02;96030.16;4376337;32;20184;-62
2023/09/27 07:15:12;;;;;;;2.43;1.73;;;;;;;15.39;93.25;96030.78;4376538;32;20222;-63
2023/09/27 07:17:38;;;;;;;6.13;1.93;;;;;;;15.35;93.82;96037.87;4380889;32;20192;-62
2023/09/27 07:20:23;;;;;;;2.17;1.10;;;;;;;15.43;93.57;96045.13;4368235;32;20264;-63
2023/09/27 07:22:49;;;;;;;0.83;0.83;;;;;;;15.40;94.25;96048.41;4381385;32;20203;-62
2023/09/27 07:25:18;;;;;;;1.30;0.67;;;;;;;15.51;94.25;96047.09;4384978;32;20189;-63
2023/09/27 07:27:43;;;;;;;0.70;0.70;;;;;;;15.51;94.17;96036.38;4389182;32;20184;-62
2023/09/27 07:30:17;;;;;;;0.70;0.70;;;;;;;15.72;93.44;96040.13;4381727;32;20193;-63
2023/09/27 07:32:43;;;;;;;2.73;1.77;;;;;;;15.67;93.74;96042.16;4385874;32;20196;-63
2023/09/27 07:35:09;;;;;;;0.70;0.70;;;;;;;15.73;93.73;96041.72;4386906;32;20199;-63
2023/09/27 07:37:36;;;;;;;1.17;1.07;;;;;;;15.66;94.08;96046.72;4384810;32;20196;-63
2023/09/27 07:40:10;;;;;;;1.40;1.40;;;;;;;15.68;94.47;96041.06;4387521;32;20245;-63
2023/09/27 07:42:36;;;;;;;1.20;1.20;;;;;;;15.69;94.58;96046.09;4374842;32;20189;-63
2023/09/27 07:45:02;;;;;;;1.13;1.13;;;;;;;15.71;94.71;96043.91;4375982;32;20231;-63
2023/09/27 07:47:27;;;;;;;0.83;0.83;;;;;;;15.78;94.67;96041.59;4375926;32;20232;-63
2023/09/27 07:49:53;;;;;;;2.10;2.00;;;;;;;15.82;94.50;96039.84;4361835;32;20219;-63
2023/09/27 07:52:18;;;;;;;2.43;1.73;;;;;;;15.87;94.51;96038.16;4372492;32;20229;-63
2023/09/27 07:54:45;;;;;;;1.10;1.10;;;;;;;16.02;94.31;96037.72;4376079;32;20205;-63
2023/09/27 07:57:11;;;;;;;0.77;0.77;;;;;;;16.05;94.16;96029.06;4364276;32;20184;-63
2023/09/27 07:59:36;;;;;;;1.83;1.73;;;;;;;16.06;94.05;96038.69;4375988;32;20212;-63
2023/09/27 08:02:02;;;;;;;2.67;2.37;;;;;;;16.07;93.92;96037.59;4377655;32;20280;-62
2023/09/27 08:04:27;;;;;;;1.23;1.23;;;;;;;16.11;93.77;96044.69;4365673;32;20203;-62
2023/09/27 08:06:52;;;;;;;1.73;1.67;;;;;;;16.19;93.62;96045.84;4366990;32;20189;-62
2023/09/27 08:09:21;;;;;;;1.07;1.07;;;;;;;16.22;93.80;96052.44;4376172;32;20231;-61
2023/09/27 08:11:47;;;;;;;1.17;1.17;;;;;;;16.34;93.54;96056.09;4376520;32;20186;-62
2023/09/27 08:14:15;;;;;;;2.77;1.50;;;;;;;16.33;93.34;96054.53;4364496;32;20241;-62
2023/09/27 08:16:41;;;;;;;1.17;1.17;;;;;;;16.38;93.35;96053.59;4362478;32;20203;-61
2023/09/27 08:19:06;;;;;;;1.73;1.43;;;;;;;16.47;92.88;96057.84;4355226;32;20196;-62
2023/09/27 08:21:31;;;;;;;1.37;1.30;;;;;;;16.54;92.75;96059.28;4374936;32;24427;-61
2023/09/27 08:23:57;;;;;;;1.23;1.10;;;;;;;16.53;93.14;96052.34;4378420;32;20195;-62
2023/09/27 08:26:22;;;;;;;2.13;1.47;;;;;;;16.55;93.34;96042.91;4379110;32;20218;-61
2023/09/27 08:28:48;;;;;;;4.13;1.77;;;;;;;16.60;92.90;96045.44;4367218;32;20246;-62
2023/09/27 08:31:13;;;;;;;2.13;2.03;;;;;;;16.72;92.56;96044.84;4378894;32;20211;-62
2023/09/27 08:33:38;;;;;;;2.83;2.70;;;;;;;16.83;92.12;96040.78;4380247;32;20208;-62
2023/09/27 08:36:04;;;;;;;2.87;2.67;;;;;;;16.96;91.62;96041.72;4378419;32;20245;-62
2023/09/27 08:38:30;;;;;;;2.80;2.70;;;;;;;16.96;91.36;96041.72;4378352;32;20230;-63
2023/09/27 08:40:56;;;;;;;2.33;2.03;;;;;;;17.02;91.27;96046.59;4372800;32;20204;-63
2023/09/27 08:43:22;;;;;;;2.53;2.37;;;;;;;17.12;90.90;96040.13;4378430;32;20215;-63
2023/09/27 08:45:51;;;;;;;2.07;1.97;;;;;;;17.17;90.66;96034.59;4364403;32;20201;-62
2023/09/27 08:48:20;;;;;;;3.03;2.83;;;;;;;17.38;90.04;96034.72;4378649;32;20250;-62
2023/09/27 08:50:46;;;;;;;2.23;2.13;;;;;;;17.55;88.83;96039.25;4377133;32;20193;-63
2023/09/27 08:53:12;;;;;;;4.00;3.10;;;;;;;17.59;88.77;96037.50;4360687;32;20246;-62
2023/09/27 08:55:40;;;;;;;3.83;3.53;;;;;;;17.71;88.24;96033.06;4374674;32;20189;-62
2023/09/27 08:58:09;;;;;;;2.77;2.67;;;;;;;17.65;88.28;96036.28;4378117;32;20184;-62
2023/09/27 09:00:36;;;;;;;3.50;3.27;;;;;;;17.78;88.08;96033.38;4369078;32;20181;-62
2023/09/27 09:03:06;;;;;;;2.57;2.47;;;;;;;17.85;87.94;96028.31;4377679;32;20189;-62
2023/09/27 09:05:36;;;;;;;3.00;2.90;;;;;;;17.90;87.81;96024.63;4355924;32;20295;-62
2023/09/27 09:08:04;;;;;;;3.87;3.57;;;;;;;17.90;88.14;96027.31;4354347;32;20248;-62
2023/09/27 09:10:33;;;;;;;3.37;3.07;;;;;;;18.06;87.18;96019.53;4369386;32;20188;-62
2023/09/27 09:13:00;;;;;;;5.63;3.90;;;;;;;18.04;87.11;96016.38;4363389;32;20224;-62
2023/09/27 09:15:41;;;;;;;2.90;2.80;;;;;;;18.12;87.11;96012.84;4349390;32;20223;-62
2023/09/27 09:18:36;;;;;;;4.17;3.87;;;;;;;18.28;86.39;96016.56;4343700;32;20192;-62
2023/09/27 09:21:08;;;;;;;7.93;3.30;;;;;;;18.40;85.83;96008.59;4368658;32;20283;-61
2023/09/27 09:27:07;;;;;;;2.30;2.20;;;;;;;18.50;85.51;96013.56;4362761;32;20286;-62
2023/09/27 09:29:57;;;;;;;3.90;3.60;;;;;;;18.46;85.40;96012.66;4365202;32;20286;-62
2023/09/27 09:32:25;;;;;;;3.27;3.10;;;;;;;18.65;84.76;96004.19;4337087;32;20190;-62
2023/09/27 09:34:54;;;;;;;2.33;2.13;;;;;;;18.65;85.06;96011.47;4351583;32;20254;-62
2023/09/27 09:37:28;;;;;;;4.27;3.97;;;;;;;18.74;84.84;96007.56;4352787;32;20185;-62
2023/09/27 09:40:13;;;;;;;3.87;3.57;;;;;;;18.71;84.95;96002.06;4371617;32;20217;-62
2023/09/27 09:42:40;;;;;;;3.67;3.37;;;;;;;18.89;83.88;96008.91;4366556;32;20215;-63
2023/09/27 09:45:06;;;;;;;4.27;3.97;;;;;;;18.77;84.67;96006.13;4366571;32;20246;-62
2023/09/27 09:47:39;;;;;;;4.07;3.77;;;;;;;18.84;84.42;96001.81;4348129;32;20193;-62
2023/09/27 09:50:29;;;;;;;3.27;3.07;;;;;;;19.02;83.50;96002.44;4353062;32;20192;-62
2023/09/27 09:52:58;;;;;;;3.00;2.60;;;;;;;19.01;83.27;95987.44;4360783;32;20199;-62
2023/09/27 09:55:25;;;;;;;6.53;2.80;;;;;;;19.02;84.11;95989.00;4375999;32;20215;-62
2023/09/27 09:58:00;;;;;;;2.70;2.60;;;;;;;19.13;83.26;95990.16;4345950;32;20208;-62
2023/09/27 10:00:27;;;;;;;2.37;2.27;;;;;;;19.20;82.82;95990.41;4378749;32;20191;-62
2023/09/27 10:03:01;;;;;;;3.00;2.90;;;;;;;19.20;82.60;95989.63;4390365;32;20189;-62
2023/09/27 10:05:51;;;;;;;3.77;3.43;;;;;;;19.28;82.52;95991.44;4342880;32;20189;-62
2023/09/27 10:08:18;;;;;;;2.57;2.43;;;;;;;19.33;82.14;95983.16;4352633;32;20185;-62
2023/09/27 10:10:47;;;;;;;3.33;3.10;;;;;;;19.40;82.31;95985.31;4360108;32;20193;-62
2023/09/27 10:13:35;;;;;;;2.47;2.37;;;;;;;19.44;82.23;95983.53;4365807;32;20212;-62
2023/09/27 10:16:03;;;;;;;3.47;3.27;;;;;;;19.38;81.99;95988.31;4356890;32;20205;-62
2023/09/27 10:18:33;;;;;;;2.63;2.53;;;;;;;19.41;81.96;95981.50;4335300;32;20242;-61
2023/09/27 10:21:03;;;;;;;2.97;2.87;;;;;;;19.29;82.94;95981.47;4372543;32;20278;-62
2023/09/27 10:23:58;;;;;;;1.80;1.80;;;;;;;19.30;82.87;95974.97;4364184;32;20220;-62
2023/09/27 10:26:29;;;;;;;4.53;3.23;;;;;;;19.44;82.41;95973.53;4322000;32;20288;-62
2023/09/27 10:29:03;;;;;;;2.30;2.23;;;;;;;19.55;81.33;95973.91;4359387;32;20185;-62
2023/09/27 10:31:37;;;;;;;3.47;3.27;;;;;;;19.54;80.51;95981.22;4373181;32;20239;-62
2023/09/27 10:34:31;;;;;;;2.53;2.43;;;;;;;19.55;80.75;95968.53;4321214;32;20282;-62
2023/09/27 10:37:00;;;;;;;2.80;2.60;;;;;;;19.55;80.56;95966.63;4335168;32;20180;-62
2023/09/27 10:39:27;;;;;;;6.87;4.37;;;;;;;19.50;80.29;95964.19;4346137;32;20195;-62
2023/09/27 10:42:08;;;;;;;2.53;2.43;;;;;;;19.50;80.66;95953.41;4366918;32;20196;-62
2023/09/27 10:44:43;;;;;;;2.80;2.67;;;;;;;19.49;81.48;95957.19;4337320;32;20261;-62
2023/09/27 10:47:25;;;;;;;3.87;3.63;;;;;;;19.69;80.59;95949.38;4357482;32;20246;-62
2023/09/27 10:50:17;;;;;;;4.30;3.63;;;;;;;19.62;80.83;95949.94;4344990;32;20185;-61
2023/09/27 10:52:44;;;;;;;3.70;3.50;;;;;;;19.58;81.09;95938.25;4378576;32;20204;-63
2023/09/27 10:55:12;;;;;;;2.77;2.57;;;;;;;19.53;81.01;95941.19;4349180;32;20211;-62
2023/09/27 10:57:41;;;;;;;3.73;3.50;;;;;;;19.51;80.63;95938.84;4347590;32;20234;-62
2023/09/27 11:00:11;;;;;;;2.50;2.30;;;;;;;19.71;79.79;95931.78;4348649;32;20194;-62
2023/09/27 11:02:50;;;;;;;2.30;2.20;;;;;;;19.79;79.98;95932.78;4367352;32;20244;-62
2023/09/27 11:05:23;;;;;;;3.87;3.53;;;;;;;19.87;78.99;95935.38;4378448;32;20195;-62
2023/09/27 11:07:50;;;;;;;3.27;3.13;;;;;;;19.79;79.09;95927.38;4350404;32;20231;-62
2023/09/27 11:10:31;;;;;;;4.10;3.80;;;;;;;19.91;78.65;95930.09;4365697;32;20184;-62
2023/09/27 11:13:12;;;;;;;3.63;3.43;;;;;;;19.96;77.90;95915.59;4344762;32;20243;-62
2023/09/27 11:15:48;;;;;;;7.93;3.20;;;;;;;19.97;78.34;95912.56;4344981;32;20248;-62
2023/09/27 11:18:16;;;;;;;3.60;3.40;;;;;;;20.10;77.86;95914.13;4352841;32;20197;-62
2023/09/27 11:20:44;;;;;;;3.87;2.87;;;;;;;20.04;78.54;95903.91;4379108;32;20196;-62
2023/09/27 11:23:10;;;;;;;4.43;3.47;;;;;;;20.06;78.74;95891.69;4358873;32;20188;-62
2023/09/27 11:25:41;;;;;;;3.73;3.53;;;;;;;20.21;77.92;95900.97;4345379;32;20259;-63
2023/09/27 11:28:14;;;;;;;2.47;2.37;;;;;;;20.21;77.37;95895.56;4358134;32;20219;-62
2023/09/27 11:30:39;;;;;;;2.47;2.27;;;;;;;20.08;76.93;95891.34;4356188;32;20199;-62
2023/09/27 11:33:05;;;;;;;2.33;2.23;;;;;;;20.08;76.87;95892.13;4317967;32;20272;-62
2023/09/27 11:35:31;;;;;;;2.03;1.93;;;;;;;20.20;77.00;95889.41;4348245;32;20200;-62
2023/09/27 11:38:13;;;;;;;5.27;3.47;;;;;;;20.19;76.89;95882.44;4356716;32;20180;-62
2023/09/27 11:40:41;;;;;;;3.17;2.37;;;;;;;20.28;75.09;95879.63;4366698;32;20188;-62